createdAt,value
2023-04-18T00:01:18.775Z,102808.41
2023-04-18T00:03:45.890Z,102802.97
2023-04-18T00:06:13.766Z,102808.81
2023-04-18T00:08:40.400Z,102810.03
2023-04-18T00:11:06.980Z,102814.63
2023-04-18T00:13:33.534Z,102814.00
2023-04-18T00:15:59.873Z,102809.66
2023-04-18T00:18:27.121Z,102806.09
2023-04-18T00:20:54.099Z,102817.13
2023-04-18T00:23:21.464Z,102806.72
2023-04-18T00:25:48.745Z,102810.88
2023-04-18T00:28:15.204Z,102819.81
2023-04-18T00:30:41.766Z,102822.13
2023-04-18T00:33:08.877Z,102819.41
2023-04-18T00:35:35.338Z,102812.34
2023-04-18T00:38:01.747Z,102817.13
2023-04-18T00:40:28.166Z,102820.22
2023-04-18T00:42:54.564Z,102816.25
2023-04-18T00:45:21.213Z,102818.53
2023-04-18T00:47:47.616Z,102808.75
2023-04-18T00:50:15.357Z,102811.47
2023-04-18T00:52:42.239Z,102808.53
2023-04-18T00:55:09.315Z,102819.53
2023-04-18T00:57:36.462Z,102814.97
2023-04-18T01:00:09.256Z,102807.06
2023-04-18T01:02:36.566Z,102807.88
2023-04-18T01:05:04.172Z,102808.47
2023-04-18T01:07:35.878Z,102815.31
2023-04-18T01:10:02.566Z,102804.53
2023-04-18T01:12:28.987Z,102810.97
2023-04-18T01:14:55.490Z,102812.00
2023-04-18T01:17:23.382Z,102810.31
2023-04-18T01:19:49.841Z,102808.66
2023-04-18T01:22:17.174Z,102804.28
2023-04-18T01:24:43.552Z,102809.50
2023-04-18T01:27:13.857Z,102796.59
2023-04-18T01:29:41.012Z,102802.00
2023-04-18T01:32:07.533Z,102795.38
2023-04-18T01:34:34.180Z,102788.69
2023-04-18T01:37:00.793Z,102796.19
2023-04-18T01:39:27.971Z,102794.50
2023-04-18T01:41:54.314Z,102786.59
2023-04-18T01:44:20.682Z,102787.84
2023-04-18T01:46:47.113Z,102784.50
2023-04-18T01:49:13.537Z,102782.84
2023-04-18T01:51:40.006Z,102789.28
2023-04-18T01:54:06.405Z,102782.41
2023-04-18T01:56:32.939Z,102790.31
2023-04-18T01:58:59.349Z,102785.09
2023-04-18T02:01:25.767Z,102789.06
2023-04-18T02:03:52.326Z,102788.44
2023-04-18T02:06:18.826Z,102786.31
2023-04-18T02:08:45.334Z,102781.53
2023-04-18T02:11:11.698Z,102783.19
2023-04-18T02:13:38.073Z,102782.75
2023-04-18T02:16:04.718Z,102781.31
2023-04-18T02:18:34.513Z,102787.50
2023-04-18T02:21:00.978Z,102777.50
2023-04-18T02:23:27.334Z,102782.69
2023-04-18T02:25:53.791Z,102775.19
2023-04-18T02:28:20.158Z,102782.03
2023-04-18T02:30:46.528Z,102784.72
2023-04-18T02:33:13.003Z,102779.34
2023-04-18T02:35:40.598Z,102785.34
2023-04-18T02:38:07.018Z,102782.59
2023-04-18T02:40:33.589Z,102781.31
2023-04-18T02:43:00.054Z,102784.22
2023-04-18T02:45:26.473Z,102783.78
2023-04-18T02:47:55.997Z,102789.56
2023-04-18T02:50:22.942Z,102793.31
2023-04-18T02:52:49.340Z,102787.66
2023-04-18T02:55:16.149Z,102788.69
2023-04-18T02:57:42.597Z,102791.16
2023-04-18T03:00:09.396Z,102790.75
2023-04-18T03:02:35.938Z,102779.97
2023-04-18T03:05:02.799Z,102787.81
2023-04-18T03:07:30.755Z,102779.47
2023-04-18T03:09:57.307Z,102782.00
2023-04-18T03:12:23.774Z,102777.81
2023-04-18T03:14:50.225Z,102783.19
2023-04-18T03:17:16.672Z,102780.28
2023-04-18T03:19:43.077Z,102779.44
2023-04-18T03:22:09.984Z,102776.56
2023-04-18T03:24:36.356Z,102784.66
2023-04-18T03:27:02.784Z,102785.88
2023-04-18T03:29:29.201Z,102784.41
2023-04-18T03:31:55.580Z,102781.06
2023-04-18T03:34:21.964Z,102780.03
2023-04-18T03:36:48.434Z,102789.34
2023-04-18T03:39:14.973Z,102788.13
2023-04-18T03:41:41.383Z,102788.53
2023-04-18T03:44:07.812Z,102795.13
2023-04-18T03:46:35.083Z,102793.66
2023-04-18T03:49:01.507Z,102796.75
2023-04-18T03:51:32.405Z,102797.56
2023-04-18T03:53:58.736Z,102796.50
2023-04-18T03:56:25.980Z,102801.25
2023-04-18T03:58:52.363Z,102795.22
2023-04-18T04:01:18.760Z,102803.31
2023-04-18T04:03:45.359Z,102800.63
2023-04-18T04:06:11.871Z,102797.91
2023-04-18T04:08:38.258Z,102805.63
2023-04-18T04:11:04.797Z,102804.59
2023-04-18T04:13:31.156Z,102801.69
2023-04-18T04:15:57.606Z,102796.28
2023-04-18T04:18:29.886Z,102803.81
2023-04-18T04:20:57.765Z,102802.78
2023-04-18T04:23:25.463Z,102802.16
2023-04-18T04:25:55.751Z,102802.97
2023-04-18T04:28:23.412Z,102796.38
2023-04-18T04:30:50.871Z,102800.13
2023-04-18T04:33:21.341Z,102795.59
2023-04-18T04:35:47.801Z,102798.72
2023-04-18T04:38:15.335Z,102801.22
2023-04-18T04:40:42.306Z,102802.06
2023-04-18T04:43:12.842Z,102813.69
2023-04-18T04:45:42.219Z,102814.31
2023-04-18T04:48:09.577Z,102795.22
2023-04-18T04:50:37.995Z,102801.28
2023-04-18T04:53:05.242Z,102806.66
2023-04-18T04:55:32.750Z,102819.94
2023-04-18T04:57:59.351Z,102817.06
2023-04-18T05:00:26.394Z,102813.34
2023-04-18T05:02:57.603Z,102818.91
2023-04-18T05:05:24.191Z,102814.38
2023-04-18T05:07:50.676Z,102816.84
2023-04-18T05:10:17.115Z,102824.13
2023-04-18T05:12:43.487Z,102815.63
2023-04-18T05:15:10.479Z,102820.19
2023-04-18T05:17:36.906Z,102815.44
2023-04-18T05:20:04.220Z,102816.06
2023-04-18T05:22:30.667Z,102821.47
2023-04-18T05:24:57.103Z,102818.75
2023-04-18T05:27:23.886Z,102822.69
2023-04-18T05:29:50.955Z,102822.50
2023-04-18T05:32:17.515Z,102824.78
2023-04-18T05:34:44.044Z,102826.91
2023-04-18T05:37:10.712Z,102832.09
2023-04-18T05:39:37.125Z,102830.25
2023-04-18T05:42:03.631Z,102834.81
2023-04-18T05:44:30.286Z,102835.84
2023-04-18T05:46:56.754Z,102840.19
2023-04-18T05:49:23.627Z,102838.53
2023-04-18T05:51:50.036Z,102831.72
2023-04-18T05:54:17.026Z,102835.91
2023-04-18T05:56:43.559Z,102839.41
2023-04-18T05:59:09.912Z,102832.59
2023-04-18T06:01:36.325Z,102835.53
2023-04-18T06:04:02.950Z,102835.34
2023-04-18T06:06:29.541Z,102837.22
2023-04-18T06:08:55.941Z,102839.50
2023-04-18T06:11:22.659Z,102839.13
2023-04-18T06:13:49.172Z,102844.50
2023-04-18T06:16:16.104Z,102850.94
2023-04-18T06:18:42.638Z,102852.44
2023-04-18T06:21:09.099Z,102852.84
2023-04-18T06:23:35.625Z,102850.59
2023-04-18T06:26:02.102Z,102850.38
2023-04-18T06:28:28.517Z,102853.13
2023-04-18T06:30:54.977Z,102858.13
2023-04-18T06:33:21.450Z,102855.25
2023-04-18T06:35:47.920Z,102851.94
2023-04-18T06:38:14.648Z,102859.03
2023-04-18T06:40:41.211Z,102862.38
2023-04-18T06:43:07.685Z,102860.72
2023-04-18T06:45:34.290Z,102859.13
2023-04-18T06:48:03.548Z,102861.41
2023-04-18T06:50:30.552Z,102855.59
2023-04-18T06:52:56.991Z,102865.63
2023-04-18T06:55:23.356Z,102868.31
2023-04-18T06:57:49.707Z,102869.13
2023-04-18T07:00:16.394Z,102873.09
2023-04-18T07:02:43.013Z,102872.47
2023-04-18T07:05:09.670Z,102873.50
2023-04-18T07:07:36.164Z,102870.63
2023-04-18T07:10:02.752Z,102865.63
2023-04-18T07:12:29.132Z,102867.31
2023-04-18T07:14:55.519Z,102878.13
2023-04-18T07:17:21.935Z,102868.97
2023-04-18T07:19:48.357Z,102872.31
2023-04-18T07:22:14.851Z,102870.63
2023-04-18T07:24:41.265Z,102882.06
2023-04-18T07:27:09.576Z,102872.75
2023-04-18T07:29:36.238Z,102873.16
2023-04-18T07:32:08.118Z,102876.09
2023-04-18T07:34:37.455Z,102875.28
2023-04-18T07:37:03.893Z,102870.09
2023-04-18T07:39:31.918Z,102878.03
2023-04-18T07:41:59.006Z,102875.72
2023-04-18T07:44:25.510Z,102879.50
2023-04-18T07:46:52.281Z,102867.03
2023-04-18T07:49:18.741Z,102868.72
2023-04-18T07:51:45.151Z,102869.56
2023-04-18T07:54:11.607Z,102865.41
2023-04-18T07:56:38.152Z,102871.22
2023-04-18T07:59:04.582Z,102864.19
2023-04-18T08:01:31.624Z,102872.50
2023-04-18T08:04:01.752Z,102861.66
2023-04-18T08:06:29.080Z,102867.47
2023-04-18T08:08:55.552Z,102873.31
2023-04-18T08:11:21.959Z,102866.41
2023-04-18T08:13:48.539Z,102869.94
2023-04-18T08:16:17.047Z,102871.63
2023-04-18T08:18:49.040Z,102863.91
2023-04-18T08:21:15.734Z,102868.84
2023-04-18T08:23:44.426Z,102868.22
2023-04-18T08:26:13.810Z,102871.13
2023-04-18T08:28:41.156Z,102870.03
2023-04-18T08:31:12.020Z,102875.25
2023-04-18T08:33:38.550Z,102878.81
2023-04-18T08:36:05.366Z,102869.44
2023-04-18T08:38:31.844Z,102888.00
2023-04-18T08:40:59.386Z,102867.81
2023-04-18T08:43:25.828Z,102873.63
2023-04-18T08:45:58.787Z,102878.59
2023-04-18T08:48:26.417Z,102876.50
2023-04-18T08:50:57.106Z,102870.28
2023-04-18T08:53:23.508Z,102866.53
2023-04-18T08:55:57.102Z,102871.47
2023-04-18T08:58:27.051Z,102873.50
2023-04-18T09:00:54.609Z,102871.41
2023-04-18T09:03:39.759Z,102877.47
2023-04-18T09:06:12.407Z,102871.56
2023-04-18T09:08:40.186Z,102864.47
2023-04-18T09:11:26.614Z,102875.78
2023-04-18T09:13:53.560Z,102873.94
2023-04-18T09:16:22.380Z,102868.91
2023-04-18T09:19:10.457Z,102873.59
2023-04-18T09:21:42.405Z,102870.38
2023-04-18T09:24:29.326Z,102860.59
2023-04-18T09:26:57.155Z,102869.97
2023-04-18T09:29:42.379Z,102872.44
2023-04-18T09:32:08.864Z,102873.31
2023-04-18T09:34:41.719Z,102860.78
2023-04-18T09:37:10.682Z,102867.34
2023-04-18T09:39:39.477Z,102873.56
2023-04-18T09:42:06.252Z,102868.75
2023-04-18T09:44:32.753Z,102864.38
2023-04-18T09:46:59.218Z,102865.00
2023-04-18T09:49:25.777Z,102866.69
2023-04-18T09:51:54.337Z,102865.19
2023-04-18T09:54:24.026Z,102861.22
2023-04-18T09:56:53.407Z,102868.94
2023-04-18T09:59:37.940Z,102860.78
2023-04-18T10:02:06.762Z,102860.19
2023-04-18T10:04:34.419Z,102863.09
2023-04-18T10:07:01.861Z,102852.66
2023-04-18T10:09:33.129Z,102868.09
2023-04-18T10:12:02.209Z,102857.47
2023-04-18T10:14:32.910Z,102865.19
2023-04-18T10:17:00.049Z,102857.94
2023-04-18T10:19:28.398Z,102860.28
2023-04-18T10:21:59.333Z,102856.06
2023-04-18T10:24:53.305Z,102850.47
2023-04-18T10:27:48.943Z,102848.34
2023-04-18T10:30:16.674Z,102848.66
2023-04-18T10:32:43.399Z,102849.56
2023-04-18T10:35:10.646Z,102848.94
2023-04-18T10:37:50.650Z,102844.13
2023-04-18T10:40:17.686Z,102854.47
2023-04-18T10:42:46.887Z,102847.44
2023-04-18T10:45:28.535Z,102837.97
2023-04-18T10:48:30.103Z,102834.94
2023-04-18T10:51:16.490Z,102831.03
2023-04-18T10:53:52.918Z,102825.28
2023-04-18T10:56:19.981Z,102821.75
2023-04-18T10:58:51.120Z,102823.88
2023-04-18T11:01:32.019Z,102817.25
2023-04-18T11:03:59.842Z,102817.28
2023-04-18T11:06:31.203Z,102819.66
2023-04-18T11:09:11.925Z,102822.44
2023-04-18T11:11:38.560Z,102822.88
2023-04-18T11:14:05.042Z,102820.41
2023-04-18T11:16:33.969Z,102817.69
2023-04-18T11:19:01.043Z,102821.22
2023-04-18T11:21:30.402Z,102822.88
2023-04-18T11:23:58.096Z,102817.72
2023-04-18T11:26:28.944Z,102814.41
2023-04-18T11:28:58.886Z,102816.91
2023-04-18T11:31:25.466Z,102807.94
2023-04-18T11:33:52.160Z,102816.53
2023-04-18T11:36:18.708Z,102808.25
2023-04-18T11:38:45.202Z,102807.16
2023-04-18T11:41:15.688Z,102812.03
2023-04-18T11:43:44.793Z,102813.19
2023-04-18T11:46:12.343Z,102796.16
2023-04-18T11:48:43.249Z,102803.19
2023-04-18T11:51:35.993Z,102813.63
2023-04-18T11:54:02.577Z,102806.88
2023-04-18T11:56:28.979Z,102817.75
2023-04-18T11:58:56.303Z,102807.34
2023-04-18T12:01:25.160Z,102807.72
2023-04-18T12:04:05.381Z,102814.13
2023-04-18T12:06:51.791Z,102810.97
2023-04-18T12:09:19.132Z,102807.94
2023-04-18T12:12:03.157Z,102802.44
2023-04-18T12:14:30.427Z,102800.88
2023-04-18T12:16:56.903Z,102802.94
2023-04-18T12:19:30.072Z,102802.34
2023-04-18T12:22:00.804Z,102801.03
2023-04-18T12:24:28.972Z,102799.53
2023-04-18T12:26:57.494Z,102798.38
2023-04-18T12:29:24.775Z,102805.38
2023-04-18T12:31:51.600Z,102799.13
2023-04-18T12:34:18.022Z,102799.13
2023-04-18T12:36:44.585Z,102800.41
2023-04-18T12:39:11.127Z,102796.41
2023-04-18T12:41:37.539Z,102791.56
2023-04-18T12:44:04.461Z,102798.59
2023-04-18T12:46:31.314Z,102789.75
2023-04-18T12:48:57.800Z,102789.28
2023-04-18T12:51:26.543Z,102792.63
2023-04-18T12:53:52.945Z,102787.25
2023-04-18T12:56:19.400Z,102785.59
2023-04-18T12:58:45.814Z,102787.97
2023-04-18T13:01:14.170Z,102782.53
2023-04-18T13:03:41.257Z,102793.84
2023-04-18T13:06:07.975Z,102786.59
2023-04-18T13:08:34.913Z,102792.03
2023-04-18T13:11:01.458Z,102793.31
2023-04-18T13:13:30.807Z,102787.88
2023-04-18T13:15:57.233Z,102795.22
2023-04-18T13:18:23.687Z,102796.28
2023-04-18T13:20:50.323Z,102786.66
2023-04-18T13:23:16.735Z,102788.31
2023-04-18T13:25:53.705Z,102793.56
2023-04-18T13:28:20.128Z,102786.66
2023-04-18T13:30:46.520Z,102792.50
2023-04-18T13:33:13.231Z,102789.53
2023-04-18T13:35:41.561Z,102797.00
2023-04-18T13:38:07.936Z,102794.03
2023-04-18T13:40:34.515Z,102787.97
2023-04-18T13:43:00.962Z,102790.56
2023-04-18T13:45:27.466Z,102782.78
2023-04-18T13:47:54.045Z,102782.31
2023-04-18T13:50:20.836Z,102787.88
2023-04-18T13:52:49.188Z,102779.50
2023-04-18T13:55:16.095Z,102782.56
2023-04-18T13:57:42.464Z,102768.88
2023-04-18T14:00:09.618Z,102778.69
2023-04-18T14:02:36.271Z,102779.94
2023-04-18T14:05:02.924Z,102770.22
2023-04-18T14:07:29.457Z,102768.69
2023-04-18T14:09:55.850Z,102770.09
2023-04-18T14:12:22.343Z,102773.66
2023-04-18T14:14:48.802Z,102772.22
2023-04-18T14:17:15.233Z,102771.25
2023-04-18T14:19:41.642Z,102771.03
2023-04-18T14:22:08.000Z,102761.69
2023-04-18T14:24:37.489Z,102764.78
2023-04-18T14:27:04.059Z,102768.56
2023-04-18T14:29:30.410Z,102758.94
2023-04-18T14:31:56.869Z,102766.91
2023-04-18T14:34:23.224Z,102760.28
2023-04-18T14:36:49.669Z,102759.19
2023-04-18T14:39:16.316Z,102762.97
2023-04-18T14:41:42.720Z,102757.19
2023-04-18T14:44:09.230Z,102751.38
2023-04-18T14:46:35.611Z,102752.69
2023-04-18T14:49:02.053Z,102751.03
2023-04-18T14:51:28.416Z,102746.28
2023-04-18T14:53:55.526Z,102743.66
2023-04-18T14:56:23.966Z,102747.47
2023-04-18T14:58:50.541Z,102746.16
2023-04-18T15:01:19.958Z,102743.31
2023-04-18T15:03:46.600Z,102744.75
2023-04-18T15:06:13.297Z,102741.88
2023-04-18T15:08:39.718Z,102735.25
2023-04-18T15:11:07.522Z,102738.63
2023-04-18T15:13:34.018Z,102726.28
2023-04-18T15:16:00.540Z,102730.31
2023-04-18T15:18:27.026Z,102731.97
2023-04-18T15:20:53.827Z,102725.34
2023-04-18T15:23:20.484Z,102728.16
2023-04-18T15:25:47.035Z,102733.63
2023-04-18T15:28:13.948Z,102735.75
2023-04-18T15:30:40.688Z,102739.56
2023-04-18T15:33:07.504Z,102728.66
2023-04-18T15:35:33.995Z,102723.19
2023-04-18T15:38:00.451Z,102720.25
2023-04-18T15:40:26.895Z,102721.66
2023-04-18T15:42:54.344Z,102719.28
2023-04-18T15:45:21.303Z,102723.16
2023-04-18T15:47:47.986Z,102717.47
2023-04-18T15:50:15.954Z,102712.84
2023-04-18T15:52:42.518Z,102713.44
2023-04-18T15:55:11.832Z,102709.38
2023-04-18T15:57:38.359Z,102716.25
2023-04-18T16:00:10.215Z,102714.34
2023-04-18T16:02:37.075Z,102710.53
2023-04-18T16:05:04.600Z,102717.66
2023-04-18T16:07:34.546Z,102710.53
2023-04-18T16:10:02.873Z,102710.53
2023-04-18T16:12:29.495Z,102710.91
2023-04-18T16:14:55.948Z,102711.22
2023-04-18T16:17:22.443Z,102706.34
2023-04-18T16:19:48.909Z,102711.72
2023-04-18T16:22:15.389Z,102707.22
2023-04-18T16:24:42.274Z,102709.88
2023-04-18T16:27:08.747Z,102709.66
2023-04-18T16:29:35.369Z,102713.63
2023-04-18T16:32:01.857Z,102713.63
2023-04-18T16:34:28.223Z,102713.03
2023-04-18T16:36:55.669Z,102707.09
2023-04-18T16:39:22.275Z,102719.66
2023-04-18T16:41:48.644Z,102716.34
2023-04-18T16:44:15.208Z,102710.56
2023-04-18T16:46:42.421Z,102718.16
2023-04-18T16:49:08.915Z,102717.81
2023-04-18T16:51:37.162Z,102706.56
2023-04-18T16:54:04.792Z,102706.81
2023-04-18T16:56:31.558Z,102709.53
2023-04-18T16:58:58.713Z,102702.44
2023-04-18T17:01:25.149Z,102699.72
2023-04-18T17:03:51.628Z,102699.13
2023-04-18T17:06:19.429Z,102706.44
2023-04-18T17:08:46.036Z,102699.13
2023-04-18T17:11:12.425Z,102699.59
2023-04-18T17:13:38.794Z,102700.31
2023-04-18T17:16:05.634Z,102706.50
2023-04-18T17:18:32.268Z,102710.75
2023-04-18T17:20:58.646Z,102711.72
2023-04-18T17:23:25.120Z,102708.88
2023-04-18T17:25:51.589Z,102707.44
2023-04-18T17:28:18.135Z,102710.44
2023-04-18T17:30:44.611Z,102712.66
2023-04-18T17:33:11.116Z,102715.50
2023-04-18T17:35:40.952Z,102714.78
2023-04-18T17:38:10.512Z,102711.72
2023-04-18T17:40:37.151Z,102713.50
2023-04-18T17:43:03.519Z,102711.50
2023-04-18T17:45:29.948Z,102715.28
2023-04-18T17:47:58.193Z,102716.47
2023-04-18T17:50:25.000Z,102719.53
2023-04-18T17:52:51.362Z,102711.25
2023-04-18T17:55:17.921Z,102722.63
2023-04-18T17:57:44.587Z,102719.78
2023-04-18T18:00:13.459Z,102720.25
2023-04-18T18:02:42.768Z,102727.84
2023-04-18T18:05:13.145Z,102716.22
2023-04-18T18:07:42.876Z,102719.31
2023-04-18T18:10:09.991Z,102723.56
2023-04-18T18:12:38.085Z,102714.00
2023-04-18T18:15:05.133Z,102721.19
2023-04-18T18:17:31.548Z,102728.75
2023-04-18T18:19:57.963Z,102727.09
2023-04-18T18:22:26.045Z,102727.34
2023-04-18T18:24:52.764Z,102725.31
2023-04-18T18:27:20.410Z,102735.25
2023-04-18T18:29:48.041Z,102727.81
2023-04-18T18:32:14.457Z,102729.31
2023-04-18T18:34:40.842Z,102734.16
2023-04-18T18:37:07.361Z,102738.38
2023-04-18T18:39:33.941Z,102737.19
2023-04-18T18:42:00.977Z,102741.91
2023-04-18T18:44:27.413Z,102739.50
2023-04-18T18:46:53.961Z,102742.06
2023-04-18T18:49:20.991Z,102746.31
2023-04-18T18:51:47.357Z,102747.59
2023-04-18T18:54:13.740Z,102749.75
2023-04-18T18:56:42.052Z,102748.75
2023-04-18T18:59:08.428Z,102753.13
2023-04-18T19:01:34.961Z,102753.59
2023-04-18T19:04:01.705Z,102758.66
2023-04-18T19:06:28.255Z,102761.44
2023-04-18T19:08:54.696Z,102761.28
2023-04-18T19:11:21.243Z,102768.84
2023-04-18T19:13:47.709Z,102783.34
2023-04-18T19:16:14.128Z,102775.63
2023-04-18T19:18:41.471Z,102779.88
2023-04-18T19:21:07.860Z,102775.28
2023-04-18T19:23:34.241Z,102787.41
2023-04-18T19:26:00.826Z,102786.59
2023-04-18T19:28:27.675Z,102788.69
2023-04-18T19:30:54.131Z,102793.91
2023-04-18T19:33:21.249Z,102789.97
2023-04-18T19:35:50.733Z,102798.34
2023-04-18T19:38:17.151Z,102798.34
2023-04-18T19:40:43.920Z,102800.22
2023-04-18T19:43:10.849Z,102805.28
2023-04-18T19:45:38.209Z,102795.25
2023-04-18T19:48:05.210Z,102810.34
2023-04-18T19:50:32.158Z,102815.78
2023-04-18T19:52:58.695Z,102814.13
2023-04-18T19:55:25.288Z,102811.84
2023-04-18T19:57:56.558Z,102824.38
2023-04-18T20:00:25.983Z,102818.56
2023-04-18T20:02:52.869Z,102820.44
2023-04-18T20:05:19.711Z,102819.00
2023-04-18T20:07:49.225Z,102824.66
2023-04-18T20:10:15.831Z,102831.75
2023-04-18T20:12:42.196Z,102830.31
2023-04-18T20:15:09.013Z,102826.16
2023-04-18T20:17:35.515Z,102826.59
2023-04-18T20:20:02.129Z,102828.09
2023-04-18T20:22:28.574Z,102828.75
2023-04-18T20:24:57.105Z,102842.56
2023-04-18T20:27:24.037Z,102840.28
2023-04-18T20:29:50.488Z,102835.31
2023-04-18T20:32:16.923Z,102830.75
2023-04-18T20:34:43.490Z,102830.97
2023-04-18T20:37:10.004Z,102830.34
2023-04-18T20:39:38.108Z,102838.34
2023-04-18T20:42:04.760Z,102839.00
2023-04-18T20:44:33.357Z,102846.53
2023-04-18T20:46:59.765Z,102843.00
2023-04-18T20:49:26.158Z,102841.34
2023-04-18T20:51:52.524Z,102844.88
2023-04-18T20:54:18.904Z,102845.31
2023-04-18T20:56:45.306Z,102849.31
2023-04-18T20:59:11.707Z,102844.31
2023-04-18T21:01:38.127Z,102849.94
2023-04-18T21:04:04.900Z,102846.63
2023-04-18T21:06:31.402Z,102847.03
2023-04-18T21:08:57.759Z,102846.66
2023-04-18T21:11:24.144Z,102846.66
2023-04-18T21:13:50.639Z,102850.84
2023-04-18T21:16:17.159Z,102850.44
2023-04-18T21:18:43.627Z,102850.22
2023-04-18T21:21:10.041Z,102850.44
2023-04-18T21:23:43.742Z,102849.19
2023-04-18T21:26:13.050Z,102861.31
2023-04-18T21:29:00.136Z,102863.41
2023-04-18T21:31:29.296Z,102854.06
2023-04-18T21:33:57.120Z,102860.97
2023-04-18T21:36:26.358Z,102858.00
2023-04-18T21:38:53.899Z,102855.31
2023-04-18T21:41:20.808Z,102858.06
2023-04-18T21:43:47.606Z,102859.53
2023-04-18T21:46:14.182Z,102860.16
2023-04-18T21:48:41.709Z,102859.34
2023-04-18T21:51:14.032Z,102855.59
2023-04-18T21:53:40.610Z,102853.91
2023-04-18T21:56:08.016Z,102849.53
2023-04-18T21:58:34.689Z,102856.00
2023-04-18T22:01:01.529Z,102853.72
2023-04-18T22:03:28.770Z,102856.88
2023-04-18T22:05:58.872Z,102859.16
2023-04-18T22:08:25.878Z,102847.69
2023-04-18T22:10:57.619Z,102843.31
2023-04-18T22:13:25.155Z,102849.78
2023-04-18T22:15:51.876Z,102845.41
2023-04-18T22:18:19.082Z,102843.53
2023-04-18T22:20:46.908Z,102848.56
2023-04-18T22:23:13.566Z,102849.59
2023-04-18T22:25:39.955Z,102846.91
2023-04-18T22:28:06.466Z,102850.66
2023-04-18T22:30:32.956Z,102851.06
2023-04-18T22:32:59.510Z,102853.78
2023-04-18T22:35:26.391Z,102855.25
2023-04-18T22:37:52.784Z,102855.69
2023-04-18T22:40:19.282Z,102847.56
2023-04-18T22:42:45.716Z,102851.50
2023-04-18T22:45:13.477Z,102851.75
2023-04-18T22:47:40.122Z,102856.31
2023-04-18T22:50:07.855Z,102863.63
2023-04-18T22:52:34.619Z,102863.63
2023-04-18T22:55:04.452Z,102864.06
2023-04-18T22:57:30.881Z,102862.81
2023-04-18T22:59:57.296Z,102867.59
2023-04-18T23:02:23.797Z,102869.47
2023-04-18T23:04:50.630Z,102859.69
2023-04-18T23:07:17.135Z,102866.16
2023-04-18T23:09:43.582Z,102868.84
2023-04-18T23:12:10.083Z,102867.00
2023-04-18T23:14:36.589Z,102861.38
2023-04-18T23:17:03.070Z,102872.22
2023-04-18T23:19:29.511Z,102877.00
2023-04-18T23:21:55.967Z,102876.19
2023-04-18T23:24:22.372Z,102873.25
2023-04-18T23:26:48.741Z,102884.09
2023-04-18T23:29:15.268Z,102879.72
2023-04-18T23:31:41.693Z,102877.00
2023-04-18T23:34:08.129Z,102872.00
2023-04-18T23:36:34.691Z,102871.38
2023-04-18T23:39:02.095Z,102871.63
2023-04-18T23:41:28.549Z,102870.16
2023-04-18T23:43:54.994Z,102871.63
2023-04-18T23:46:21.426Z,102874.75
2023-04-18T23:48:47.818Z,102875.38
2023-04-18T23:51:14.289Z,102875.38
2023-04-18T23:53:40.695Z,102868.91
2023-04-18T23:56:07.194Z,102867.88
2023-04-18T23:58:33.561Z,102860.78
